sensor_id;sensor_type;location;lat;lon;timestamp;P1;durP1;ratioP1;P2;durP2;ratioP2
4565;SDS011;2295;51.050;14.608;2022-09-09T00:00:59;4.50;;;3.40;;
4565;SDS011;2295;51.050;14.608;2022-09-09T00:03:37;6.38;;;3.30;;
4565;SDS011;2295;51.050;14.608;2022-09-09T00:06:14;2.88;;;2.78;;
4565;SDS011;2295;51.050;14.608;2022-09-09T00:08:53;3.40;;;3.20;;
4565;SDS011;2295;51.050;14.608;2022-09-09T00:11:30;3.53;;;3.20;;
4565;SDS011;2295;51.050;14.608;2022-09-09T00:14:09;4.85;;;3.30;;
4565;SDS011;2295;51.050;14.608;2022-09-09T00:16:43;6.10;;;3.00;;
4565;SDS011;2295;51.050;14.608;2022-09-09T00:19:19;3.30;;;2.63;;
4565;SDS011;2295;51.050;14.608;2022-09-09T00:21:53;7.38;;;2.63;;
4565;SDS011;2295;51.050;14.608;2022-09-09T00:24:29;4.30;;;2.97;;
4565;SDS011;2295;51.050;14.608;2022-09-09T00:27:08;3.50;;;3.22;;
4565;SDS011;2295;51.050;14.608;2022-09-09T00:29:44;17.83;;;4.13;;
4565;SDS011;2295;51.050;14.608;2022-09-09T00:32:19;5.40;;;3.50;;
4565;SDS011;2295;51.050;14.608;2022-09-09T00:34:49;3.25;;;3.05;;
4565;SDS011;2295;51.050;14.608;2022-09-09T00:37:21;5.38;;;3.20;;
4565;SDS011;2295;51.050;14.608;2022-09-09T00:39:51;4.78;;;3.35;;
4565;SDS011;2295;51.050;14.608;2022-09-09T00:42:30;3.40;;;3.20;;
4565;SDS011;2295;51.050;14.608;2022-09-09T00:45:12;4.25;;;3.30;;
4565;SDS011;2295;51.050;14.608;2022-09-09T00:47:57;3.35;;;3.15;;
4565;SDS011;2295;51.050;14.608;2022-09-09T00:50:35;4.28;;;3.30;;
4565;SDS011;2295;51.050;14.608;2022-09-09T00:53:16;3.30;;;3.00;;
4565;SDS011;2295;51.050;14.608;2022-09-09T00:55:55;4.65;;;3.22;;
4565;SDS011;2295;51.050;14.608;2022-09-09T00:58:34;6.90;;;2.80;;
4565;SDS011;2295;51.050;14.608;2022-09-09T01:01:03;3.35;;;2.72;;
4565;SDS011;2295;51.050;14.608;2022-09-09T01:03:34;3.10;;;2.90;;
4565;SDS011;2295;51.050;14.608;2022-09-09T01:06:11;3.30;;;3.00;;
4565;SDS011;2295;51.050;14.608;2022-09-09T01:08:46;3.13;;;3.03;;
4565;SDS011;2295;51.050;14.608;2022-09-09T01:11:43;3.50;;;3.30;;
4565;SDS011;2295;51.050;14.608;2022-09-09T01:14:27;4.13;;;3.45;;
4565;SDS011;2295;51.050;14.608;2022-09-09T01:17:11;11.07;;;3.85;;
4565;SDS011;2295;51.050;14.608;2022-09-09T01:19:50;4.97;;;3.97;;
4565;SDS011;2295;51.050;14.608;2022-09-09T01:22:28;3.72;;;3.42;;
4565;SDS011;2295;51.050;14.608;2022-09-09T01:25:16;4.05;;;3.72;;
4565;SDS011;2295;51.050;14.608;2022-09-09T01:27:56;4.10;;;3.80;;
4565;SDS011;2295;51.050;14.608;2022-09-09T01:30:28;4.35;;;3.40;;
4565;SDS011;2295;51.050;14.608;2022-09-09T01:32:57;16.90;;;4.30;;
4565;SDS011;2295;51.050;14.608;2022-09-09T01:35:32;5.13;;;4.20;;
4565;SDS011;2295;51.050;14.608;2022-09-09T01:38:07;4.05;;;3.47;;
4565;SDS011;2295;51.050;14.608;2022-09-09T01:40:36;9.73;;;5.05;;
4565;SDS011;2295;51.050;14.608;2022-09-09T01:43:05;5.40;;;4.50;;
4565;SDS011;2295;51.050;14.608;2022-09-09T01:45:34;4.57;;;4.07;;
4565;SDS011;2295;51.050;14.608;2022-09-09T01:48:03;6.70;;;4.53;;
4565;SDS011;2295;51.050;14.608;2022-09-09T01:50:31;4.40;;;4.00;;
4565;SDS011;2295;51.050;14.608;2022-09-09T01:53:00;4.40;;;4.10;;
4565;SDS011;2295;51.050;14.608;2022-09-09T01:55:31;6.60;;;4.07;;
4565;SDS011;2295;51.050;14.608;2022-09-09T01:58:11;8.95;;;4.20;;
4565;SDS011;2295;51.050;14.608;2022-09-09T02:00:50;5.57;;;4.15;;
4565;SDS011;2295;51.050;14.608;2022-09-09T02:03:27;9.68;;;3.80;;
4565;SDS011;2295;51.050;14.608;2022-09-09T02:06:01;4.13;;;3.83;;
4565;SDS011;2295;51.050;14.608;2022-09-09T02:08:39;4.18;;;3.88;;
4565;SDS011;2295;51.050;14.608;2022-09-09T02:11:11;5.05;;;4.63;;
4565;SDS011;2295;51.050;14.608;2022-09-09T02:13:44;4.35;;;4.03;;
4565;SDS011;2295;51.050;14.608;2022-09-09T02:16:16;6.07;;;4.32;;
4565;SDS011;2295;51.050;14.608;2022-09-09T02:18:50;5.47;;;4.55;;
4565;SDS011;2295;51.050;14.608;2022-09-09T02:21:21;6.05;;;4.30;;
4565;SDS011;2295;51.050;14.608;2022-09-09T02:23:50;5.05;;;3.65;;
4565;SDS011;2295;51.050;14.608;2022-09-09T02:26:20;4.40;;;4.00;;
4565;SDS011;2295;51.050;14.608;2022-09-09T02:28:52;4.43;;;4.13;;
4565;SDS011;2295;51.050;14.608;2022-09-09T02:31:24;4.75;;;4.30;;
4565;SDS011;2295;51.050;14.608;2022-09-09T02:33:54;5.13;;;4.30;;
4565;SDS011;2295;51.050;14.608;2022-09-09T02:36:25;5.20;;;3.80;;
4565;SDS011;2295;51.050;14.608;2022-09-09T02:38:56;4.90;;;3.50;;
4565;SDS011;2295;51.050;14.608;2022-09-09T02:41:25;11.52;;;4.07;;
4565;SDS011;2295;51.050;14.608;2022-09-09T02:44:00;7.63;;;4.13;;
4565;SDS011;2295;51.050;14.608;2022-09-09T02:46:43;3.90;;;3.50;;
4565;SDS011;2295;51.050;14.608;2022-09-09T02:49:27;4.35;;;3.95;;
4565;SDS011;2295;51.050;14.608;2022-09-09T02:52:04;13.02;;;4.53;;
4565;SDS011;2295;51.050;14.608;2022-09-09T02:54:35;4.15;;;3.85;;
4565;SDS011;2295;51.050;14.608;2022-09-09T02:57:06;4.15;;;3.75;;
4565;SDS011;2295;51.050;14.608;2022-09-09T02:59:39;4.57;;;4.18;;
4565;SDS011;2295;51.050;14.608;2022-09-09T03:02:08;5.35;;;3.95;;
4565;SDS011;2295;51.050;14.608;2022-09-09T03:04:37;6.32;;;3.80;;
4565;SDS011;2295;51.050;14.608;2022-09-09T03:07:07;5.05;;;4.00;;
4565;SDS011;2295;51.050;14.608;2022-09-09T03:09:36;4.97;;;4.03;;
4565;SDS011;2295;51.050;14.608;2022-09-09T03:12:04;4.15;;;3.75;;
4565;SDS011;2295;51.050;14.608;2022-09-09T03:14:33;6.63;;;3.67;;
4565;SDS011;2295;51.050;14.608;2022-09-09T03:17:03;4.57;;;4.18;;
4565;SDS011;2295;51.050;14.608;2022-09-09T03:19:32;4.60;;;4.20;;
4565;SDS011;2295;51.050;14.608;2022-09-09T03:22:02;5.85;;;4.45;;
4565;SDS011;2295;51.050;14.608;2022-09-09T03:24:31;5.20;;;4.28;;
4565;SDS011;2295;51.050;14.608;2022-09-09T03:26:59;8.40;;;4.25;;
4565;SDS011;2295;51.050;14.608;2022-09-09T03:29:28;7.13;;;3.90;;
4565;SDS011;2295;51.050;14.608;2022-09-09T03:31:56;7.57;;;3.80;;
4565;SDS011;2295;51.050;14.608;2022-09-09T03:34:25;3.63;;;3.33;;
4565;SDS011;2295;51.050;14.608;2022-09-09T03:36:54;4.20;;;3.83;;
4565;SDS011;2295;51.050;14.608;2022-09-09T03:39:22;4.97;;;3.55;;
4565;SDS011;2295;51.050;14.608;2022-09-09T03:41:50;6.63;;;3.25;;
4565;SDS011;2295;51.050;14.608;2022-09-09T03:44:18;4.32;;;2.88;;
4565;SDS011;2295;51.050;14.608;2022-09-09T03:46:47;3.20;;;2.90;;
4565;SDS011;2295;51.050;14.608;2022-09-09T03:49:15;4.32;;;2.80;;
4565;SDS011;2295;51.050;14.608;2022-09-09T03:51:45;3.35;;;2.90;;
4565;SDS011;2295;51.050;14.608;2022-09-09T03:54:13;7.40;;;2.90;;
4565;SDS011;2295;51.050;14.608;2022-09-09T03:56:41;4.80;;;2.92;;
4565;SDS011;2295;51.050;14.608;2022-09-09T03:59:09;3.03;;;2.60;;
4565;SDS011;2295;51.050;14.608;2022-09-09T04:01:37;2.85;;;2.65;;
4565;SDS011;2295;51.050;14.608;2022-09-09T04:04:06;6.03;;;3.03;;
4565;SDS011;2295;51.050;14.608;2022-09-09T04:06:35;3.40;;;3.10;;
4565;SDS011;2295;51.050;14.608;2022-09-09T04:09:04;4.13;;;3.60;;
4565;SDS011;2295;51.050;14.608;2022-09-09T04:11:32;4.88;;;3.17;;
4565;SDS011;2295;51.050;14.608;2022-09-09T04:14:01;3.55;;;3.28;;
4565;SDS011;2295;51.050;14.608;2022-09-09T04:16:30;6.43;;;2.80;;
4565;SDS011;2295;51.050;14.608;2022-09-09T04:18:59;5.70;;;3.00;;
4565;SDS011;2295;51.050;14.608;2022-09-09T04:21:27;5.25;;;3.15;;
4565;SDS011;2295;51.050;14.608;2022-09-09T04:23:55;5.00;;;3.00;;
4565;SDS011;2295;51.050;14.608;2022-09-09T04:26:25;4.22;;;2.70;;
4565;SDS011;2295;51.050;14.608;2022-09-09T04:28:53;3.13;;;2.75;;
4565;SDS011;2295;51.050;14.608;2022-09-09T04:31:22;3.25;;;2.95;;
4565;SDS011;2295;51.050;14.608;2022-09-09T04:33:50;7.82;;;3.75;;
4565;SDS011;2295;51.050;14.608;2022-09-09T04:36:19;5.03;;;3.45;;
4565;SDS011;2295;51.050;14.608;2022-09-09T04:38:47;5.68;;;3.10;;
4565;SDS011;2295;51.050;14.608;2022-09-09T04:41:16;5.35;;;3.38;;
4565;SDS011;2295;51.050;14.608;2022-09-09T04:43:45;6.70;;;3.80;;
4565;SDS011;2295;51.050;14.608;2022-09-09T04:46:14;3.60;;;3.35;;
4565;SDS011;2295;51.050;14.608;2022-09-09T04:48:43;6.88;;;3.60;;
4565;SDS011;2295;51.050;14.608;2022-09-09T04:51:13;10.70;;;5.38;;
4565;SDS011;2295;51.050;14.608;2022-09-09T04:53:41;11.50;;;4.60;;
4565;SDS011;2295;51.050;14.608;2022-09-09T04:56:10;10.02;;;5.75;;
4565;SDS011;2295;51.050;14.608;2022-09-09T04:58:40;9.85;;;5.55;;
4565;SDS011;2295;51.050;14.608;2022-09-09T05:01:11;32.60;;;6.93;;
4565;SDS011;2295;51.050;14.608;2022-09-09T05:03:40;18.88;;;6.07;;
4565;SDS011;2295;51.050;14.608;2022-09-09T05:06:09;10.43;;;5.50;;
4565;SDS011;2295;51.050;14.608;2022-09-09T05:08:39;12.70;;;5.95;;
4565;SDS011;2295;51.050;14.608;2022-09-09T05:11:15;15.48;;;6.95;;
4565;SDS011;2295;51.050;14.608;2022-09-09T05:13:44;6.47;;;4.88;;
4565;SDS011;2295;51.050;14.608;2022-09-09T05:16:14;11.88;;;4.32;;
4565;SDS011;2295;51.050;14.608;2022-09-09T05:18:44;5.72;;;3.90;;
4565;SDS011;2295;51.050;14.608;2022-09-09T05:21:13;9.32;;;4.72;;
4565;SDS011;2295;51.050;14.608;2022-09-09T05:23:46;7.30;;;3.60;;
4565;SDS011;2295;51.050;14.608;2022-09-09T05:26:16;9.82;;;3.72;;
4565;SDS011;2295;51.050;14.608;2022-09-09T05:28:45;6.07;;;3.70;;
4565;SDS011;2295;51.050;14.608;2022-09-09T05:31:16;11.40;;;3.50;;
4565;SDS011;2295;51.050;14.608;2022-09-09T05:33:45;11.80;;;3.60;;
4565;SDS011;2295;51.050;14.608;2022-09-09T05:36:16;9.93;;;3.28;;
4565;SDS011;2295;51.050;14.608;2022-09-09T05:38:46;7.93;;;3.55;;
4565;SDS011;2295;51.050;14.608;2022-09-09T05:41:16;3.42;;;3.00;;
4565;SDS011;2295;51.050;14.608;2022-09-09T05:43:45;14.57;;;3.35;;
4565;SDS011;2295;51.050;14.608;2022-09-09T05:46:17;4.82;;;3.10;;
4565;SDS011;2295;51.050;14.608;2022-09-09T05:48:48;4.57;;;2.65;;
4565;SDS011;2295;51.050;14.608;2022-09-09T05:51:18;5.70;;;2.75;;
4565;SDS011;2295;51.050;14.608;2022-09-09T05:53:48;9.45;;;3.58;;
4565;SDS011;2295;51.050;14.608;2022-09-09T05:56:18;6.10;;;3.00;;
4565;SDS011;2295;51.050;14.608;2022-09-09T05:58:48;5.28;;;2.80;;
4565;SDS011;2295;51.050;14.608;2022-09-09T06:01:20;6.10;;;2.83;;
4565;SDS011;2295;51.050;14.608;2022-09-09T06:03:50;2.75;;;2.55;;
4565;SDS011;2295;51.050;14.608;2022-09-09T06:06:19;5.30;;;2.80;;
4565;SDS011;2295;51.050;14.608;2022-09-09T06:08:50;8.02;;;2.72;;
4565;SDS011;2295;51.050;14.608;2022-09-09T06:11:20;2.60;;;2.10;;
4565;SDS011;2295;51.050;14.608;2022-09-09T06:13:50;6.35;;;2.45;;
4565;SDS011;2295;51.050;14.608;2022-09-09T06:16:22;5.00;;;2.55;;
4565;SDS011;2295;51.050;14.608;2022-09-09T06:18:51;7.85;;;2.15;;
4565;SDS011;2295;51.050;14.608;2022-09-09T06:21:21;3.33;;;2.40;;
4565;SDS011;2295;51.050;14.608;2022-09-09T06:23:50;5.82;;;1.92;;
4565;SDS011;2295;51.050;14.608;2022-09-09T06:26:26;3.70;;;2.17;;
4565;SDS011;2295;51.050;14.608;2022-09-09T06:28:57;6.20;;;1.90;;
4565;SDS011;2295;51.050;14.608;2022-09-09T06:31:28;5.00;;;2.27;;
4565;SDS011;2295;51.050;14.608;2022-09-09T06:33:58;4.17;;;1.50;;
4565;SDS011;2295;51.050;14.608;2022-09-09T06:36:27;2.50;;;1.67;;
4565;SDS011;2295;51.050;14.608;2022-09-09T06:38:57;4.63;;;1.63;;
4565;SDS011;2295;51.050;14.608;2022-09-09T06:41:26;6.43;;;1.33;;
4565;SDS011;2295;51.050;14.608;2022-09-09T06:43:56;2.07;;;1.20;;
4565;SDS011;2295;51.050;14.608;2022-09-09T06:46:27;1.93;;;1.47;;
4565;SDS011;2295;51.050;14.608;2022-09-09T06:48:59;5.00;;;1.50;;
4565;SDS011;2295;51.050;14.608;2022-09-09T06:51:29;4.30;;;1.73;;
4565;SDS011;2295;51.050;14.608;2022-09-09T06:53:59;1.90;;;1.70;;
4565;SDS011;2295;51.050;14.608;2022-09-09T06:56:29;2.00;;;1.23;;
4565;SDS011;2295;51.050;14.608;2022-09-09T06:58:59;5.57;;;1.03;;
4565;SDS011;2295;51.050;14.608;2022-09-09T07:01:32;6.60;;;1.07;;
4565;SDS011;2295;51.050;14.608;2022-09-09T07:04:02;3.17;;;1.13;;
4565;SDS011;2295;51.050;14.608;2022-09-09T07:06:34;4.20;;;0.97;;
4565;SDS011;2295;51.050;14.608;2022-09-09T07:09:04;5.77;;;1.23;;
4565;SDS011;2295;51.050;14.608;2022-09-09T07:11:36;2.30;;;0.90;;
4565;SDS011;2295;51.050;14.608;2022-09-09T07:14:06;3.57;;;1.40;;
4565;SDS011;2295;51.050;14.608;2022-09-09T07:16:36;4.53;;;1.00;;
4565;SDS011;2295;51.050;14.608;2022-09-09T07:19:04;3.03;;;1.10;;
4565;SDS011;2295;51.050;14.608;2022-09-09T07:21:33;1.97;;;0.97;;
4565;SDS011;2295;51.050;14.608;2022-09-09T07:24:01;2.83;;;1.30;;
4565;SDS011;2295;51.050;14.608;2022-09-09T07:26:33;6.27;;;1.30;;
4565;SDS011;2295;51.050;14.608;2022-09-09T07:29:02;1.20;;;0.90;;
4565;SDS011;2295;51.050;14.608;2022-09-09T07:31:31;4.50;;;1.10;;
4565;SDS011;2295;51.050;14.608;2022-09-09T07:34:04;3.53;;;1.10;;
4565;SDS011;2295;51.050;14.608;2022-09-09T07:36:33;4.90;;;0.90;;
4565;SDS011;2295;51.050;14.608;2022-09-09T07:39:05;1.10;;;1.00;;
4565;SDS011;2295;51.050;14.608;2022-09-09T07:41:35;5.23;;;1.10;;
4565;SDS011;2295;51.050;14.608;2022-09-09T07:44:05;4.43;;;1.40;;
4565;SDS011;2295;51.050;14.608;2022-09-09T07:46:35;6.17;;;1.47;;
4565;SDS011;2295;51.050;14.608;2022-09-09T07:49:07;6.90;;;1.30;;
4565;SDS011;2295;51.050;14.608;2022-09-09T07:51:37;3.57;;;1.43;;
4565;SDS011;2295;51.050;14.608;2022-09-09T07:54:08;4.50;;;1.10;;
4565;SDS011;2295;51.050;14.608;2022-09-09T07:56:38;1.30;;;1.10;;
4565;SDS011;2295;51.050;14.608;2022-09-09T07:59:07;2.90;;;1.40;;
4565;SDS011;2295;51.050;14.608;2022-09-09T08:01:38;1.77;;;1.37;;
4565;SDS011;2295;51.050;14.608;2022-09-09T08:04:09;1.67;;;1.20;;
4565;SDS011;2295;51.050;14.608;2022-09-09T08:06:42;3.50;;;1.20;;
4565;SDS011;2295;51.050;14.608;2022-09-09T08:09:13;1.70;;;1.07;;
4565;SDS011;2295;51.050;14.608;2022-09-09T08:11:42;1.00;;;0.90;;
4565;SDS011;2295;51.050;14.608;2022-09-09T08:14:10;3.63;;;1.20;;
4565;SDS011;2295;51.050;14.608;2022-09-09T08:16:40;4.60;;;1.30;;
4565;SDS011;2295;51.050;14.608;2022-09-09T08:19:11;2.57;;;1.20;;
4565;SDS011;2295;51.050;14.608;2022-09-09T08:21:42;2.33;;;1.00;;
4565;SDS011;2295;51.050;14.608;2022-09-09T08:24:11;4.90;;;1.20;;
4565;SDS011;2295;51.050;14.608;2022-09-09T08:26:41;4.13;;;1.20;;
4565;SDS011;2295;51.050;14.608;2022-09-09T08:29:12;1.40;;;1.00;;
4565;SDS011;2295;51.050;14.608;2022-09-09T08:31:42;1.20;;;1.10;;
4565;SDS011;2295;51.050;14.608;2022-09-09T08:34:13;1.90;;;1.03;;
4565;SDS011;2295;51.050;14.608;2022-09-09T08:36:42;1.40;;;1.03;;
4565;SDS011;2295;51.050;14.608;2022-09-09T08:39:12;1.87;;;1.10;;
4565;SDS011;2295;51.050;14.608;2022-09-09T08:48:01;2.87;;;1.20;;
4565;SDS011;2295;51.050;14.608;2022-09-09T08:50:44;2.03;;;1.20;;
4565;SDS011;2295;51.050;14.608;2022-09-09T08:53:17;3.47;;;1.47;;
4565;SDS011;2295;51.050;14.608;2022-09-09T08:55:51;5.20;;;1.50;;
4565;SDS011;2295;51.050;14.608;2022-09-09T08:58:22;1.43;;;1.20;;
4565;SDS011;2295;51.050;14.608;2022-09-09T09:00:58;7.17;;;1.20;;
4565;SDS011;2295;51.050;14.608;2022-09-09T09:03:40;2.97;;;1.20;;
4565;SDS011;2295;51.050;14.608;2022-09-09T09:06:20;5.90;;;1.30;;
4565;SDS011;2295;51.050;14.608;2022-09-09T09:09:01;4.30;;;1.00;;
4565;SDS011;2295;51.050;14.608;2022-09-09T09:11:36;1.93;;;1.00;;
4565;SDS011;2295;51.050;14.608;2022-09-09T09:14:08;3.70;;;0.90;;
4565;SDS011;2295;51.050;14.608;2022-09-09T09:16:41;9.83;;;1.17;;
4565;SDS011;2295;51.050;14.608;2022-09-09T09:19:17;1.67;;;0.90;;
4565;SDS011;2295;51.050;14.608;2022-09-09T09:21:51;5.33;;;1.20;;
4565;SDS011;2295;51.050;14.608;2022-09-09T09:24:26;2.50;;;1.00;;
4565;SDS011;2295;51.050;14.608;2022-09-09T09:26:59;2.63;;;1.00;;
4565;SDS011;2295;51.050;14.608;2022-09-09T09:29:35;1.53;;;0.70;;
4565;SDS011;2295;51.050;14.608;2022-09-09T09:32:24;1.70;;;0.80;;
4565;SDS011;2295;51.050;14.608;2022-09-09T09:34:56;1.50;;;0.97;;
4565;SDS011;2295;51.050;14.608;2022-09-09T09:37:29;1.83;;;1.00;;
4565;SDS011;2295;51.050;14.608;2022-09-09T09:40:07;17.93;;;1.23;;
4565;SDS011;2295;51.050;14.608;2022-09-09T09:42:37;2.47;;;0.80;;
4565;SDS011;2295;51.050;14.608;2022-09-09T09:45:15;1.67;;;0.70;;
4565;SDS011;2295;51.050;14.608;2022-09-09T09:47:57;1.20;;;0.70;;
4565;SDS011;2295;51.050;14.608;2022-09-09T09:50:32;1.43;;;0.70;;
4565;SDS011;2295;51.050;14.608;2022-09-09T09:53:03;3.47;;;0.90;;
4565;SDS011;2295;51.050;14.608;2022-09-09T09:55:34;8.63;;;0.93;;
4565;SDS011;2295;51.050;14.608;2022-09-09T09:58:05;1.00;;;0.90;;
4565;SDS011;2295;51.050;14.608;2022-09-09T10:00:34;3.90;;;0.90;;
4565;SDS011;2295;51.050;14.608;2022-09-09T10:03:12;1.87;;;0.90;;
4565;SDS011;2295;51.050;14.608;2022-09-09T10:05:47;1.37;;;0.90;;
4565;SDS011;2295;51.050;14.608;2022-09-09T10:08:17;2.90;;;1.10;;
4565;SDS011;2295;51.050;14.608;2022-09-09T10:10:49;6.87;;;1.40;;
4565;SDS011;2295;51.050;14.608;2022-09-09T10:13:25;2.07;;;1.10;;
4565;SDS011;2295;51.050;14.608;2022-09-09T10:16:02;2.80;;;0.90;;
4565;SDS011;2295;51.050;14.608;2022-09-09T10:18:44;4.30;;;1.00;;
4565;SDS011;2295;51.050;14.608;2022-09-09T10:21:26;1.30;;;0.90;;
4565;SDS011;2295;51.050;14.608;2022-09-09T10:24:13;2.30;;;1.00;;
4565;SDS011;2295;51.050;14.608;2022-09-09T10:27:11;2.47;;;1.23;;
4565;SDS011;2295;51.050;14.608;2022-09-09T10:29:50;2.00;;;1.20;;
4565;SDS011;2295;51.050;14.608;2022-09-09T10:32:41;4.00;;;1.17;;
4565;SDS011;2295;51.050;14.608;2022-09-09T10:35:17;3.43;;;1.30;;
4565;SDS011;2295;51.050;14.608;2022-09-09T10:43:56;1.67;;;1.10;;
4565;SDS011;2295;51.050;14.608;2022-09-09T10:46:36;7.03;;;1.50;;
4565;SDS011;2295;51.050;14.608;2022-09-09T10:49:20;8.03;;;1.77;;
4565;SDS011;2295;51.050;14.608;2022-09-09T10:52:00;3.07;;;1.20;;
4565;SDS011;2295;51.050;14.608;2022-09-09T10:54:40;5.60;;;1.20;;
4565;SDS011;2295;51.050;14.608;2022-09-09T10:57:24;4.50;;;1.10;;
4565;SDS011;2295;51.050;14.608;2022-09-09T10:59:59;2.30;;;1.30;;
4565;SDS011;2295;51.050;14.608;2022-09-09T11:02:32;1.63;;;1.00;;
4565;SDS011;2295;51.050;14.608;2022-09-09T11:05:02;4.20;;;1.50;;
4565;SDS011;2295;51.050;14.608;2022-09-09T11:07:36;2.17;;;1.50;;
4565;SDS011;2295;51.050;14.608;2022-09-09T11:10:16;7.53;;;1.40;;
4565;SDS011;2295;51.050;14.608;2022-09-09T11:12:53;4.40;;;1.30;;
4565;SDS011;2295;51.050;14.608;2022-09-09T11:15:28;3.60;;;1.20;;
4565;SDS011;2295;51.050;14.608;2022-09-09T11:18:03;4.00;;;1.27;;
4565;SDS011;2295;51.050;14.608;2022-09-09T11:20:34;2.47;;;1.10;;
4565;SDS011;2295;51.050;14.608;2022-09-09T11:23:03;3.33;;;1.40;;
4565;SDS011;2295;51.050;14.608;2022-09-09T11:25:37;3.30;;;1.10;;
4565;SDS011;2295;51.050;14.608;2022-09-09T11:28:16;1.97;;;1.30;;
4565;SDS011;2295;51.050;14.608;2022-09-09T11:31:08;7.20;;;1.30;;
4565;SDS011;2295;51.050;14.608;2022-09-09T11:36:49;2.67;;;1.10;;
4565;SDS011;2295;51.050;14.608;2022-09-09T11:39:41;3.20;;;1.13;;
4565;SDS011;2295;51.050;14.608;2022-09-09T11:42:22;2.77;;;1.10;;
4565;SDS011;2295;51.050;14.608;2022-09-09T11:44:53;7.40;;;1.33;;
4565;SDS011;2295;51.050;14.608;2022-09-09T11:47:24;2.43;;;1.33;;
4565;SDS011;2295;51.050;14.608;2022-09-09T11:50:07;5.90;;;1.43;;
4565;SDS011;2295;51.050;14.608;2022-09-09T11:52:37;4.63;;;1.57;;
4565;SDS011;2295;51.050;14.608;2022-09-09T11:55:09;1.73;;;1.33;;
4565;SDS011;2295;51.050;14.608;2022-09-09T11:57:39;4.30;;;1.40;;
4565;SDS011;2295;51.050;14.608;2022-09-09T12:00:35;1.50;;;1.27;;
4565;SDS011;2295;51.050;14.608;2022-09-09T12:03:08;2.80;;;1.83;;
4565;SDS011;2295;51.050;14.608;2022-09-09T12:06:08;3.17;;;1.83;;
4565;SDS011;2295;51.050;14.608;2022-09-09T12:08:40;1.63;;;1.37;;
4565;SDS011;2295;51.050;14.608;2022-09-09T12:11:11;1.53;;;1.43;;
4565;SDS011;2295;51.050;14.608;2022-09-09T12:13:52;2.60;;;1.77;;
4565;SDS011;2295;51.050;14.608;2022-09-09T12:16:29;2.63;;;1.50;;
4565;SDS011;2295;51.050;14.608;2022-09-09T12:19:05;3.47;;;2.10;;
4565;SDS011;2295;51.050;14.608;2022-09-09T12:21:43;3.27;;;1.30;;
4565;SDS011;2295;51.050;14.608;2022-09-09T12:24:16;3.13;;;1.77;;
4565;SDS011;2295;51.050;14.608;2022-09-09T12:26:52;3.60;;;1.53;;
4565;SDS011;2295;51.050;14.608;2022-09-09T12:29:28;2.70;;;1.90;;
4565;SDS011;2295;51.050;14.608;2022-09-09T12:32:08;4.97;;;1.77;;
4565;SDS011;2295;51.050;14.608;2022-09-09T12:34:40;3.03;;;1.97;;
4565;SDS011;2295;51.050;14.608;2022-09-09T12:37:14;3.53;;;1.73;;
4565;SDS011;2295;51.050;14.608;2022-09-09T12:39:47;4.17;;;2.00;;
4565;SDS011;2295;51.050;14.608;2022-09-09T12:42:20;5.00;;;2.00;;
4565;SDS011;2295;51.050;14.608;2022-09-09T12:44:56;2.87;;;2.10;;
4565;SDS011;2295;51.050;14.608;2022-09-09T12:47:28;3.33;;;1.80;;
4565;SDS011;2295;51.050;14.608;2022-09-09T12:50:02;12.43;;;2.20;;
4565;SDS011;2295;51.050;14.608;2022-09-09T12:52:31;6.13;;;1.97;;
4565;SDS011;2295;51.050;14.608;2022-09-09T12:55:03;3.97;;;1.67;;
4565;SDS011;2295;51.050;14.608;2022-09-09T12:57:35;6.10;;;1.50;;
4565;SDS011;2295;51.050;14.608;2022-09-09T13:00:07;1.93;;;1.60;;
4565;SDS011;2295;51.050;14.608;2022-09-09T13:02:47;3.87;;;1.70;;
4565;SDS011;2295;51.050;14.608;2022-09-09T13:05:18;3.53;;;1.53;;
4565;SDS011;2295;51.050;14.608;2022-09-09T13:07:49;4.13;;;1.83;;
4565;SDS011;2295;51.050;14.608;2022-09-09T13:10:21;5.33;;;1.80;;
4565;SDS011;2295;51.050;14.608;2022-09-09T13:13:12;6.63;;;1.40;;
4565;SDS011;2295;51.050;14.608;2022-09-09T13:15:47;4.80;;;1.20;;
4565;SDS011;2295;51.050;14.608;2022-09-09T13:18:21;1.67;;;1.20;;
4565;SDS011;2295;51.050;14.608;2022-09-09T13:20:51;2.00;;;1.20;;
4565;SDS011;2295;51.050;14.608;2022-09-09T13:23:20;9.80;;;1.17;;
4565;SDS011;2295;51.050;14.608;2022-09-09T13:25:52;3.73;;;0.93;;
4565;SDS011;2295;51.050;14.608;2022-09-09T13:28:22;2.90;;;1.17;;
4565;SDS011;2295;51.050;14.608;2022-09-09T13:30:59;1.47;;;0.90;;
4565;SDS011;2295;51.050;14.608;2022-09-09T13:33:31;1.77;;;0.97;;
4565;SDS011;2295;51.050;14.608;2022-09-09T13:36:01;2.40;;;1.13;;
4565;SDS011;2295;51.050;14.608;2022-09-09T13:38:32;1.80;;;0.90;;
4565;SDS011;2295;51.050;14.608;2022-09-09T13:41:05;4.77;;;1.10;;
4565;SDS011;2295;51.050;14.608;2022-09-09T13:43:35;6.00;;;1.10;;
4565;SDS011;2295;51.050;14.608;2022-09-09T13:46:06;5.90;;;1.10;;
4565;SDS011;2295;51.050;14.608;2022-09-09T13:48:57;7.60;;;1.30;;
4565;SDS011;2295;51.050;14.608;2022-09-09T13:51:29;2.43;;;0.90;;
4565;SDS011;2295;51.050;14.608;2022-09-09T13:54:04;5.47;;;1.60;;
4565;SDS011;2295;51.050;14.608;2022-09-09T13:56:33;2.53;;;1.10;;
4565;SDS011;2295;51.050;14.608;2022-09-09T13:59:03;2.07;;;1.03;;
4565;SDS011;2295;51.050;14.608;2022-09-09T14:01:32;6.10;;;2.27;;
4565;SDS011;2295;51.050;14.608;2022-09-09T14:04:03;1.20;;;0.90;;
4565;SDS011;2295;51.050;14.608;2022-09-09T14:06:32;3.23;;;1.00;;
4565;SDS011;2295;51.050;14.608;2022-09-09T14:09:03;1.70;;;1.17;;
4565;SDS011;2295;51.050;14.608;2022-09-09T14:11:31;3.23;;;1.07;;
4565;SDS011;2295;51.050;14.608;2022-09-09T14:14:00;4.30;;;1.20;;
4565;SDS011;2295;51.050;14.608;2022-09-09T14:16:28;5.10;;;1.00;;
4565;SDS011;2295;51.050;14.608;2022-09-09T14:18:56;6.87;;;1.10;;
4565;SDS011;2295;51.050;14.608;2022-09-09T14:21:27;3.10;;;1.33;;
4565;SDS011;2295;51.050;14.608;2022-09-09T14:23:55;4.53;;;1.63;;
4565;SDS011;2295;51.050;14.608;2022-09-09T14:26:24;4.40;;;1.07;;
4565;SDS011;2295;51.050;14.608;2022-09-09T14:28:55;2.47;;;1.17;;
4565;SDS011;2295;51.050;14.608;2022-09-09T14:31:24;10.63;;;1.40;;
4565;SDS011;2295;51.050;14.608;2022-09-09T14:33:52;3.57;;;1.50;;
4565;SDS011;2295;51.050;14.608;2022-09-09T14:36:21;3.33;;;1.10;;
4565;SDS011;2295;51.050;14.608;2022-09-09T14:38:52;4.13;;;1.60;;
4565;SDS011;2295;51.050;14.608;2022-09-09T14:41:20;2.00;;;1.23;;
4565;SDS011;2295;51.050;14.608;2022-09-09T14:43:49;2.13;;;1.00;;
4565;SDS011;2295;51.050;14.608;2022-09-09T14:46:19;8.50;;;1.30;;
4565;SDS011;2295;51.050;14.608;2022-09-09T14:48:48;2.57;;;1.20;;
4565;SDS011;2295;51.050;14.608;2022-09-09T14:51:17;2.53;;;1.03;;
4565;SDS011;2295;51.050;14.608;2022-09-09T14:53:51;5.47;;;1.10;;
4565;SDS011;2295;51.050;14.608;2022-09-09T14:56:22;7.40;;;1.17;;
4565;SDS011;2295;51.050;14.608;2022-09-09T14:58:52;2.07;;;1.00;;
4565;SDS011;2295;51.050;14.608;2022-09-09T15:01:21;5.10;;;1.30;;
4565;SDS011;2295;51.050;14.608;2022-09-09T15:03:54;4.10;;;1.17;;
4565;SDS011;2295;51.050;14.608;2022-09-09T15:06:25;2.10;;;1.07;;
4565;SDS011;2295;51.050;14.608;2022-09-09T15:08:56;2.80;;;1.20;;
4565;SDS011;2295;51.050;14.608;2022-09-09T15:11:25;4.37;;;1.10;;
4565;SDS011;2295;51.050;14.608;2022-09-09T15:13:56;1.77;;;1.10;;
4565;SDS011;2295;51.050;14.608;2022-09-09T15:16:26;4.00;;;1.20;;
4565;SDS011;2295;51.050;14.608;2022-09-09T15:18:56;4.10;;;1.33;;
4565;SDS011;2295;51.050;14.608;2022-09-09T15:21:26;6.47;;;1.20;;
4565;SDS011;2295;51.050;14.608;2022-09-09T15:23:56;4.50;;;1.30;;
4565;SDS011;2295;51.050;14.608;2022-09-09T15:26:25;4.20;;;1.13;;
4565;SDS011;2295;51.050;14.608;2022-09-09T15:28:54;4.03;;;2.67;;
4565;SDS011;2295;51.050;14.608;2022-09-09T15:31:26;3.00;;;1.10;;
4565;SDS011;2295;51.050;14.608;2022-09-09T15:33:57;4.37;;;1.30;;
4565;SDS011;2295;51.050;14.608;2022-09-09T15:36:28;3.67;;;1.73;;
4565;SDS011;2295;51.050;14.608;2022-09-09T15:39:00;1.93;;;1.10;;
4565;SDS011;2295;51.050;14.608;2022-09-09T15:41:31;1.77;;;1.00;;
4565;SDS011;2295;51.050;14.608;2022-09-09T15:43:59;2.63;;;1.20;;
4565;SDS011;2295;51.050;14.608;2022-09-09T15:46:30;4.20;;;3.00;;
4565;SDS011;2295;51.050;14.608;2022-09-09T15:49:02;3.83;;;2.50;;